Time;durP1;ratioP1;P1;durP2;ratioP2;P2;SDS_P1;SDS_P2;PMS_P1;PMS_P2;Temp;Humidity;BMP_temperature;BMP_pressure;BME280_temperature;BME280_humidity;BME280_pressure;Samples;Min_cycle;Max_cycle;Signal;HPM_P1;HPM_P2
2021/09/27 00:01:25;;;;;;;1.10;0.80;;;17.90;99.90;;;;;;5095927;28;20633;-82
2021/09/27 00:03:51;;;;;;;2.57;0.73;;;17.90;99.90;;;;;;5077880;28;20287;-82
2021/09/27 00:06:17;;;;;;;1.57;1.00;;;17.90;99.90;;;;;;5086128;28;20657;-82
2021/09/27 00:08:43;;;;;;;1.07;0.97;;;17.90;99.90;;;;;;5088044;28;20263;-83
2021/09/27 00:11:17;;;;;;;0.37;0.37;;;17.90;99.90;;;;;;5087726;28;20212;-82
2021/09/27 00:13:47;;;;;;;1.70;0.90;;;17.90;99.90;;;;;;5081256;28;20693;-82
2021/09/27 00:16:13;;;;;;;0.53;0.53;;;18.00;99.90;;;;;;5092141;28;20204;-82
2021/09/27 00:18:40;;;;;;;1.50;0.70;;;18.00;99.90;;;;;;5086462;28;20175;-82
2021/09/27 00:21:09;;;;;;;1.03;0.90;;;17.90;99.90;;;;;;5086059;28;20570;-82
2021/09/27 00:23:35;;;;;;;1.70;0.70;;;17.90;99.90;;;;;;5086798;28;20266;-82
2021/09/27 00:26:02;;;;;;;1.63;1.10;;;17.90;99.90;;;;;;5085628;28;20187;-82
2021/09/27 00:28:28;;;;;;;2.23;1.33;;;17.90;99.90;;;;;;5083782;28;20200;-82
2021/09/27 00:30:54;;;;;;;1.13;1.03;;;18.00;99.90;;;;;;5092083;28;20535;-82
2021/09/27 00:33:23;;;;;;;0.90;0.90;;;18.00;99.90;;;;;;5080947;28;20212;-82
2021/09/27 00:35:49;;;;;;;0.97;0.53;;;18.00;99.90;;;;;;5091885;28;20208;-82
2021/09/27 00:38:17;;;;;;;1.60;0.93;;;18.00;99.90;;;;;;5083960;28;20207;-83
2021/09/27 00:40:47;;;;;;;0.40;0.40;;;18.10;99.90;;;;;;5090934;28;20191;-82
2021/09/27 00:43:13;;;;;;;1.20;1.10;;;18.00;99.90;;;;;;5089099;28;20215;-82
2021/09/27 00:45:47;;;;;;;1.27;1.00;;;17.90;99.90;;;;;;5085512;28;20184;-81
2021/09/27 00:48:13;;;;;;;0.83;0.83;;;17.90;99.90;;;;;;5084351;28;20542;-82
2021/09/27 00:50:44;;;;;;;0.80;0.80;;;17.90;99.90;;;;;;5079012;28;20215;-81
2021/09/27 00:53:23;;;;;;;2.17;1.10;;;17.90;99.90;;;;;;5087247;28;20556;-82
2021/09/27 00:55:49;;;;;;;0.70;0.70;;;17.90;99.90;;;;;;5093038;28;20254;-81
2021/09/27 00:58:18;;;;;;;1.40;1.30;;;17.90;99.90;;;;;;5087452;28;20232;-82
2021/09/27 01:00:44;;;;;;;1.20;1.17;;;17.80;99.90;;;;;;5084092;28;20181;-81
2021/09/27 01:03:10;;;;;;;3.23;1.30;;;17.80;99.90;;;;;;5088103;28;20206;-82
2021/09/27 01:05:39;;;;;;;0.70;0.70;;;17.80;99.90;;;;;;5088325;28;20247;-82
2021/09/27 01:08:13;;;;;;;1.10;1.10;;;17.80;99.90;;;;;;5086247;28;20198;-82
2021/09/27 01:11:09;;;;;;;0.93;0.90;;;17.80;99.90;;;;;;5088532;28;20219;-82
2021/09/27 01:13:41;;;;;;;0.87;0.87;;;17.70;99.90;;;;;;5083014;28;20226;-82
2021/09/27 01:16:28;;;;;;;0.77;0.70;;;17.70;99.90;;;;;;5083394;28;20631;-82
2021/09/27 01:19:19;;;;;;;1.30;1.20;;;17.70;99.90;;;;;;5096287;28;20190;-82
2021/09/27 01:22:11;;;;;;;1.47;1.37;;;17.60;99.90;;;;;;5087941;28;20187;-81
2021/09/27 01:24:52;;;;;;;0.70;0.70;;;17.50;99.90;;;;;;5075599;28;20576;-82
2021/09/27 01:27:41;;;;;;;2.10;0.67;;;17.50;99.90;;;;;;5092799;28;20571;-82
2021/09/27 01:30:15;;;;;;;0.70;0.70;;;17.40;99.90;;;;;;5091244;28;20653;-82
2021/09/27 01:32:48;;;;;;;1.10;0.70;;;17.40;99.90;;;;;;5077614;28;20207;-81
2021/09/27 01:35:40;;;;;;;2.57;1.67;;;17.40;99.90;;;;;;5081581;28;20192;-81
2021/09/27 01:38:23;;;;;;;1.10;1.03;;;17.40;99.90;;;;;;5084965;28;20188;-82
2021/09/27 01:40:54;;;;;;;1.80;0.93;;;17.40;99.90;;;;;;5094297;28;20180;-82
2021/09/27 01:43:27;;;;;;;1.13;1.07;;;17.40;99.90;;;;;;5092095;28;20225;-82
2021/09/27 01:46:03;;;;;;;0.90;0.90;;;17.40;99.90;;;;;;5093713;28;20190;-82
2021/09/27 01:48:41;;;;;;;1.83;1.20;;;17.40;99.90;;;;;;5093111;28;20263;-82
2021/09/27 01:51:30;;;;;;;2.23;1.80;;;17.40;99.90;;;;;;5093696;28;20186;-82
2021/09/27 01:54:09;;;;;;;3.17;1.17;;;17.40;99.90;;;;;;5087251;28;20588;-82
2021/09/27 01:56:49;;;;;;;0.40;0.40;;;17.50;99.90;;;;;;5098903;28;20199;-82
2021/09/27 01:59:34;;;;;;;2.10;1.00;;;17.50;99.90;;;;;;5091500;28;20183;-82
2021/09/27 02:02:08;;;;;;;1.70;1.23;;;17.50;99.90;;;;;;5098210;28;20196;-82
2021/09/27 02:04:45;;;;;;;1.67;1.47;;;17.50;99.90;;;;;;5097304;28;20184;-81
2021/09/27 02:07:13;;;;;;;1.13;0.90;;;17.50;99.90;;;;;;5085360;28;20181;-82
2021/09/27 02:10:01;;;;;;;1.03;1.00;;;17.50;99.90;;;;;;5092470;28;20663;-81
2021/09/27 02:12:40;;;;;;;2.37;1.13;;;17.50;99.90;;;;;;5080852;28;20213;-82
2021/09/27 02:15:13;;;;;;;0.90;0.90;;;17.50;99.90;;;;;;5089466;28;20191;-82
2021/09/27 02:17:59;;;;;;;1.63;1.53;;;17.50;99.90;;;;;;5096268;28;20296;-81
2021/09/27 02:20:37;;;;;;;1.50;0.67;;;17.50;99.90;;;;;;5088986;28;20188;-81
2021/09/27 02:23:18;;;;;;;1.03;0.90;;;17.40;99.90;;;;;;5081305;28;20583;-82
2021/09/27 02:25:45;;;;;;;0.40;0.40;;;17.40;99.90;;;;;;5084418;28;20193;-82
2021/09/27 02:28:15;;;;;;;0.93;0.83;;;17.40;99.90;;;;;;5091840;28;20204;-81
2021/09/27 02:30:50;;;;;;;2.67;1.63;;;17.40;99.90;;;;;;5093566;28;20180;-82
2021/09/27 02:33:37;;;;;;;0.93;0.93;;;17.40;99.90;;;;;;5082981;28;20273;-81
2021/09/27 02:36:25;;;;;;;2.40;1.37;;;17.50;99.90;;;;;;5080734;28;20204;-82
2021/09/27 02:39:03;;;;;;;1.03;0.90;;;17.50;99.90;;;;;;5088792;28;20184;-82
2021/09/27 02:41:36;;;;;;;0.87;0.80;;;17.50;99.90;;;;;;5092045;28;20185;-82
2021/09/27 02:44:02;;;;;;;0.40;0.40;;;17.50;99.90;;;;;;5096645;28;20181;-82
2021/09/27 02:46:29;;;;;;;0.60;0.60;;;17.50;99.90;;;;;;5094405;28;20645;-82
2021/09/27 02:49:12;;;;;;;1.83;1.17;;;17.40;99.90;;;;;;5096422;28;20541;-82
2021/09/27 02:51:40;;;;;;;1.90;0.90;;;17.40;99.90;;;;;;5085838;28;20255;-81
2021/09/27 02:54:07;;;;;;;1.10;0.83;;;17.40;99.90;;;;;;5087534;28;20215;-82
2021/09/27 02:56:50;;;;;;;0.70;0.70;;;17.40;99.90;;;;;;5092634;28;20578;-82
2021/09/27 02:59:34;;;;;;;3.40;0.60;;;17.40;99.90;;;;;;5092931;28;20279;-81
2021/09/27 03:02:21;;;;;;;2.50;0.80;;;17.40;99.90;;;;;;5099847;28;20253;-82
2021/09/27 03:05:06;;;;;;;0.83;0.83;;;17.40;99.90;;;;;;5094343;28;20184;-82
2021/09/27 03:07:34;;;;;;;0.70;0.70;;;17.40;99.90;;;;;;5087645;28;20211;-81
2021/09/27 03:10:20;;;;;;;0.57;0.50;;;17.40;99.90;;;;;;5081040;28;20192;-82
2021/09/27 03:13:17;;;;;;;0.97;0.60;;;17.30;99.90;;;;;;5089054;28;20211;-82
2021/09/27 03:16:07;;;;;;;1.17;0.47;;;17.30;99.90;;;;;;5090638;28;20204;-82
2021/09/27 03:18:55;;;;;;;1.60;0.60;;;17.10;99.90;;;;;;5090139;28;20189;-82
2021/09/27 03:21:57;;;;;;;1.60;0.73;;;17.00;99.90;;;;;;5082004;28;20188;-81
2021/09/27 03:24:47;;;;;;;0.60;0.60;;;16.90;99.90;;;;;;5056305;28;20593;-82
2021/09/27 03:27:31;;;;;;;1.67;0.87;;;16.90;99.90;;;;;;5083857;28;20200;-82
2021/09/27 03:30:15;;;;;;;0.40;0.40;;;17.00;99.90;;;;;;5089933;28;20589;-82
2021/09/27 03:32:52;;;;;;;1.23;0.93;;;17.00;99.90;;;;;;5080403;28;20236;-81
2021/09/27 03:35:42;;;;;;;0.70;0.63;;;16.90;99.90;;;;;;5096756;28;20190;-82
2021/09/27 03:38:12;;;;;;;0.60;0.40;;;16.90;99.90;;;;;;5094039;28;20637;-81
2021/09/27 03:40:57;;;;;;;1.40;0.53;;;16.90;99.90;;;;;;5088161;28;20253;-82
2021/09/27 03:43:22;;;;;;;0.23;0.23;;;16.90;99.90;;;;;;5103189;28;20203;-82
2021/09/27 03:46:25;;;;;;;1.13;0.90;;;16.70;99.90;;;;;;5085816;28;20261;-82
2021/09/27 03:48:56;;;;;;;0.77;0.77;;;16.80;99.90;;;;;;5092197;28;20551;-82
2021/09/27 03:51:31;;;;;;;0.93;0.57;;;16.80;99.90;;;;;;5086529;28;20199;-82
2021/09/27 03:54:17;;;;;;;0.60;0.60;;;16.90;99.90;;;;;;5102384;28;20186;-82
2021/09/27 03:56:59;;;;;;;0.40;0.40;;;17.00;99.90;;;;;;5092034;28;20222;-81
2021/09/27 03:59:38;;;;;;;0.87;0.53;;;17.00;99.90;;;;;;5080242;28;20190;-81
2021/09/27 04:02:07;;;;;;;0.90;0.63;;;17.00;99.90;;;;;;5098754;28;20199;-82
2021/09/27 04:05:05;;;;;;;1.33;1.07;;;17.10;99.90;;;;;;5093021;28;20211;-82
2021/09/27 04:07:53;;;;;;;0.30;0.30;;;17.10;99.90;;;;;;5059435;28;20200;-82
2021/09/27 04:10:58;;;;;;;1.87;0.50;;;17.10;99.90;;;;;;5082632;28;20545;-82
2021/09/27 04:13:40;;;;;;;0.37;0.37;;;17.10;99.90;;;;;;5088376;28;20196;-82
2021/09/27 04:16:12;;;;;;;0.70;0.70;;;17.10;99.90;;;;;;5084551;28;20196;-82
2021/09/27 04:19:03;;;;;;;1.33;1.33;;;17.10;99.90;;;;;;5087942;28;20192;-82
2021/09/27 04:22:01;;;;;;;1.23;1.13;;;17.10;99.90;;;;;;5087038;28;20177;-82
2021/09/27 04:25:01;;;;;;;3.37;0.73;;;17.10;99.90;;;;;;5045266;28;20183;-81
2021/09/27 04:27:57;;;;;;;0.60;0.60;;;17.10;99.90;;;;;;5087291;28;20196;-82
2021/09/27 04:30:37;;;;;;;1.93;1.60;;;17.10;99.90;;;;;;5085298;28;20171;-82
2021/09/27 04:33:24;;;;;;;0.60;0.57;;;17.10;99.90;;;;;;5090398;28;20776;-82
2021/09/27 04:36:00;;;;;;;1.70;0.83;;;17.10;99.90;;;;;;5093387;28;20588;-82
2021/09/27 04:38:27;;;;;;;1.23;1.03;;;17.20;99.90;;;;;;5088662;28;20240;-81
2021/09/27 04:41:05;;;;;;;0.53;0.53;;;17.20;99.90;;;;;;5085179;28;20184;-81
2021/09/27 04:43:54;;;;;;;0.50;0.47;;;17.20;99.90;;;;;;5092342;28;20199;-82
2021/09/27 04:46:44;;;;;;;1.70;0.93;;;17.20;99.90;;;;;;5088706;28;20191;-81
2021/09/27 04:49:25;;;;;;;1.17;0.93;;;17.20;99.90;;;;;;5082768;28;20714;-81
2021/09/27 04:52:05;;;;;;;0.83;0.83;;;17.20;99.90;;;;;;5096169;28;20724;-82
2021/09/27 04:55:03;;;;;;;1.20;1.10;;;17.20;99.90;;;;;;5091351;28;20199;-81
2021/09/27 04:57:55;;;;;;;1.70;0.93;;;17.20;99.90;;;;;;5083109;28;20213;-82
2021/09/27 05:00:27;;;;;;;0.60;0.50;;;17.20;99.90;;;;;;5102488;28;20192;-82
2021/09/27 05:03:02;;;;;;;1.60;1.13;;;17.20;99.90;;;;;;5087594;28;20200;-82
2021/09/27 05:05:52;;;;;;;1.03;1.03;;;17.10;99.90;;;;;;5089335;28;20214;-82
2021/09/27 05:08:43;;;;;;;1.87;1.37;;;17.00;99.90;;;;;;5093780;28;20179;-82
2021/09/27 05:11:39;;;;;;;1.13;1.03;;;17.00;99.90;;;;;;5082475;28;20678;-82
2021/09/27 05:14:16;;;;;;;2.07;1.73;;;17.00;99.90;;;;;;5078330;28;20254;-81
2021/09/27 05:16:56;;;;;;;3.03;1.30;;;17.00;99.90;;;;;;5091318;28;20196;-82
2021/09/27 05:19:31;;;;;;;1.20;0.87;;;17.00;99.90;;;;;;5087295;28;20167;-81
2021/09/27 05:22:34;;;;;;;1.37;0.73;;;17.00;99.90;;;;;;5086855;28;20568;-82
2021/09/27 05:25:10;;;;;;;1.17;0.70;;;17.00;99.90;;;;;;5077359;28;20655;-81
2021/09/27 05:27:53;;;;;;;1.33;0.87;;;17.00;99.90;;;;;;5091329;28;20197;-82
2021/09/27 05:30:47;;;;;;;1.60;1.50;;;17.00;99.90;;;;;;5076543;28;20217;-82
2021/09/27 05:33:32;;;;;;;0.67;0.67;;;17.00;99.90;;;;;;5086555;28;20198;-81
2021/09/27 05:36:03;;;;;;;2.73;1.53;;;17.00;99.90;;;;;;5083793;28;20242;-81
2021/09/27 05:38:34;;;;;;;1.50;1.07;;;17.00;99.90;;;;;;5090390;28;20176;-83
2021/09/27 05:41:30;;;;;;;1.20;1.10;;;17.00;99.90;;;;;;5075271;28;20171;-81
2021/09/27 05:44:22;;;;;;;1.27;1.10;;;17.00;99.90;;;;;;5088603;28;20220;-82
2021/09/27 05:47:08;;;;;;;1.60;0.77;;;17.00;99.90;;;;;;5090590;28;20588;-82
2021/09/27 05:50:09;;;;;;;0.60;0.60;;;17.00;99.90;;;;;;5081702;28;20185;-82
2021/09/27 05:52:43;;;;;;;0.60;0.60;;;17.00;99.90;;;;;;5018910;28;20214;-83
2021/09/27 05:55:41;;;;;;;1.37;0.60;;;17.10;99.90;;;;;;5083492;28;20183;-82
2021/09/27 05:58:15;;;;;;;3.17;0.87;;;17.20;99.90;;;;;;5086475;28;20174;-82
2021/09/27 06:00:50;;;;;;;1.23;0.87;;;17.10;99.90;;;;;;5083864;28;20169;-82
2021/09/27 06:03:31;;;;;;;0.63;0.57;;;17.10;99.90;;;;;;5085352;28;20202;-83
2021/09/27 06:06:30;;;;;;;1.00;1.00;;;17.10;99.90;;;;;;5078827;28;20164;-82
2021/09/27 06:09:28;;;;;;;0.30;0.20;;;17.20;99.90;;;;;;5086005;28;20192;-83
2021/09/27 06:12:10;;;;;;;0.83;0.63;;;17.20;99.90;;;;;;5083509;28;20216;-82
2021/09/27 06:14:37;;;;;;;0.67;0.67;;;17.30;99.90;;;;;;5090496;28;20179;-83
2021/09/27 06:17:21;;;;;;;0.70;0.60;;;17.40;99.90;;;;;;5094107;28;20199;-83
2021/09/27 06:20:12;;;;;;;0.87;0.70;;;17.40;99.90;;;;;;5083384;28;20594;-83
2021/09/27 06:22:59;;;;;;;1.17;1.00;;;17.30;99.90;;;;;;5087191;28;20204;-81
2021/09/27 06:25:24;;;;;;;1.47;0.80;;;17.40;99.90;;;;;;5089646;28;20580;-82
2021/09/27 06:28:09;;;;;;;1.00;0.73;;;17.20;99.90;;;;;;5081603;28;20278;-82
2021/09/27 06:30:51;;;;;;;1.37;0.93;;;17.30;99.90;;;;;;5085044;28;20161;-82
2021/09/27 06:33:20;;;;;;;1.37;0.83;;;17.30;99.90;;;;;;5090303;28;20202;-82
2021/09/27 06:35:48;;;;;;;0.43;0.43;;;17.30;99.90;;;;;;5098252;28;20704;-82
2021/09/27 06:38:16;;;;;;;1.03;0.87;;;17.30;99.90;;;;;;5092457;28;20205;-82
2021/09/27 06:40:49;;;;;;;0.80;0.80;;;17.30;99.90;;;;;;5084725;28;20546;-82
2021/09/27 06:43:19;;;;;;;1.60;0.70;;;17.40;99.90;;;;;;5086864;28;20203;-82
2021/09/27 06:45:46;;;;;;;0.70;0.70;;;17.60;99.90;;;;;;5088406;28;20560;-82
2021/09/27 06:48:11;;;;;;;2.07;1.17;;;17.60;99.90;;;;;;5091607;28;20184;-82
2021/09/27 06:50:37;;;;;;;0.70;0.70;;;17.60;99.90;;;;;;5081675;28;20194;-82
2021/09/27 06:53:03;;;;;;;1.10;0.83;;;17.70;99.90;;;;;;5087794;28;20196;-82
2021/09/27 06:55:28;;;;;;;2.30;2.10;;;17.80;99.90;;;;;;5095900;28;20202;-83
2021/09/27 06:57:54;;;;;;;0.93;0.80;;;17.80;99.90;;;;;;5088862;28;20226;-83
2021/09/27 07:00:20;;;;;;;1.40;0.80;;;17.90;99.90;;;;;;5091634;28;20197;-83
2021/09/27 07:02:46;;;;;;;0.77;0.33;;;17.80;99.90;;;;;;5089800;28;20194;-82
2021/09/27 07:05:12;;;;;;;0.67;0.67;;;17.80;99.90;;;;;;5091225;28;20195;-83
2021/09/27 07:07:39;;;;;;;0.87;0.87;;;17.80;99.90;;;;;;5085552;28;20188;-82
2021/09/27 07:10:08;;;;;;;1.37;1.10;;;17.80;99.90;;;;;;5098816;28;20240;-82
2021/09/27 07:12:33;;;;;;;3.13;1.57;;;17.90;99.90;;;;;;5088415;28;20301;-83
2021/09/27 07:14:59;;;;;;;0.87;0.70;;;17.80;99.90;;;;;;5094154;28;20612;-83
2021/09/27 07:17:24;;;;;;;1.80;1.50;;;17.70;99.90;;;;;;5096500;28;20283;-82
2021/09/27 07:19:50;;;;;;;0.80;0.73;;;17.80;99.90;;;;;;5087460;28;20178;-82
2021/09/27 07:22:16;;;;;;;2.63;2.07;;;17.70;99.90;;;;;;5090597;28;20200;-83
2021/09/27 07:24:42;;;;;;;1.50;1.23;;;17.50;99.90;;;;;;5090388;28;20620;-82
2021/09/27 07:27:07;;;;;;;1.07;0.90;;;17.60;99.90;;;;;;5087535;28;20199;-82
2021/09/27 07:29:33;;;;;;;1.70;0.70;;;17.70;99.90;;;;;;5087776;28;20184;-82
2021/09/27 07:31:59;;;;;;;1.60;1.20;;;17.80;99.90;;;;;;5089668;28;20738;-82
2021/09/27 07:34:25;;;;;;;2.93;0.50;;;17.90;99.90;;;;;;5096932;28;20196;-82
2021/09/27 07:36:51;;;;;;;0.70;0.67;;;18.00;99.90;;;;;;5087853;28;20246;-82
2021/09/27 07:39:18;;;;;;;1.30;1.20;;;18.00;99.90;;;;;;5087070;28;20202;-83
2021/09/27 07:41:45;;;;;;;2.37;1.20;;;18.10;99.90;;;;;;5088105;28;20597;-82
2021/09/27 07:44:10;;;;;;;0.70;0.63;;;18.10;99.90;;;;;;5090010;28;20212;-82
2021/09/27 07:46:36;;;;;;;0.60;0.60;;;18.10;99.90;;;;;;5084166;28;20562;-82
2021/09/27 07:49:02;;;;;;;3.40;1.37;;;17.90;99.90;;;;;;5091387;28;20187;-82
2021/09/27 07:51:28;;;;;;;3.87;1.97;;;17.90;99.90;;;;;;5091530;28;20553;-82
2021/09/27 07:53:54;;;;;;;0.93;0.93;;;17.90;99.90;;;;;;5090857;28;20666;-82
2021/09/27 07:56:20;;;;;;;6.03;1.00;;;17.90;99.90;;;;;;5105261;28;20326;-82
2021/09/27 07:58:45;;;;;;;1.43;1.33;;;17.90;99.90;;;;;;5086037;28;20221;-82
2021/09/27 08:01:13;;;;;;;7.07;1.33;;;17.90;99.90;;;;;;5092248;28;20191;-82
2021/09/27 08:03:39;;;;;;;0.80;0.80;;;17.90;99.90;;;;;;5093388;28;20204;-82
2021/09/27 08:06:05;;;;;;;1.20;0.83;;;18.00;99.90;;;;;;5088593;28;20192;-83
2021/09/27 08:08:31;;;;;;;1.73;1.63;;;18.00;99.90;;;;;;5088402;28;20184;-82
2021/09/27 08:10:57;;;;;;;4.23;0.77;;;18.00;99.90;;;;;;5088756;28;20623;-82
2021/09/27 08:13:23;;;;;;;1.00;0.70;;;18.00;99.90;;;;;;5087739;28;20215;-82
2021/09/27 08:15:51;;;;;;;0.57;0.57;;;18.00;99.90;;;;;;5094239;28;20313;-82
2021/09/27 08:18:19;;;;;;;1.40;1.30;;;18.00;99.90;;;;;;5088434;28;20184;-82
2021/09/27 08:20:55;;;;;;;2.30;1.40;;;18.00;99.90;;;;;;5089089;28;20220;-82
2021/09/27 08:23:22;;;;;;;2.33;2.13;;;17.90;99.90;;;;;;5088889;28;20193;-82
2021/09/27 08:25:48;;;;;;;1.00;0.80;;;17.80;99.90;;;;;;5085273;28;20189;-82
2021/09/27 08:28:15;;;;;;;1.47;1.10;;;17.80;99.90;;;;;;5085769;28;20218;-82
2021/09/27 08:30:46;;;;;;;0.83;0.83;;;17.90;99.90;;;;;;5088185;28;20181;-82
2021/09/27 08:33:12;;;;;;;2.87;0.97;;;18.00;99.90;;;;;;5092108;28;20685;-83
2021/09/27 08:35:39;;;;;;;3.20;1.20;;;18.10;99.90;;;;;;5095024;28;20662;-83
2021/09/27 08:38:07;;;;;;;1.17;1.07;;;18.10;99.90;;;;;;5084771;28;20211;-82
2021/09/27 08:40:32;;;;;;;0.60;0.60;;;18.20;99.90;;;;;;5091775;28;20685;-82
2021/09/27 08:43:11;;;;;;;0.60;0.60;;;18.30;99.90;;;;;;5087477;28;20197;-82
2021/09/27 08:45:36;;;;;;;0.70;0.70;;;18.60;99.90;;;;;;5093568;28;20187;-82
2021/09/27 08:48:37;;;;;;;1.27;0.87;;;18.90;99.90;;;;;;5085372;28;20180;-82
2021/09/27 08:51:03;;;;;;;0.43;0.43;;;18.80;99.90;;;;;;5085417;28;20260;-83
2021/09/27 08:53:38;;;;;;;6.07;1.17;;;18.80;99.90;;;;;;5087734;28;20278;-82
2021/09/27 08:56:19;;;;;;;1.97;1.13;;;18.70;99.90;;;;;;5093403;28;20196;-82
2021/09/27 08:59:12;;;;;;;0.70;0.70;;;18.60;99.90;;;;;;5075859;28;20200;-83
2021/09/27 09:02:07;;;;;;;0.77;0.70;;;18.70;99.90;;;;;;5091766;28;20248;-82
2021/09/27 09:04:45;;;;;;;0.70;0.70;;;18.60;99.90;;;;;;5103310;28;20188;-82
2021/09/27 09:07:17;;;;;;;1.20;1.10;;;18.60;99.90;;;;;;5087539;28;20233;-83
2021/09/27 09:09:59;;;;;;;1.77;0.80;;;18.70;99.90;;;;;;5091205;28;20276;-82
2021/09/27 09:12:51;;;;;;;5.67;1.53;;;18.90;99.90;;;;;;5082312;28;20208;-83
2021/09/27 09:15:26;;;;;;;0.80;0.80;;;19.10;99.90;;;;;;5078648;28;20259;-83
2021/09/27 09:17:55;;;;;;;1.47;1.20;;;19.10;99.90;;;;;;5090068;28;20255;-82
2021/09/27 09:20:47;;;;;;;1.87;0.80;;;19.30;99.90;;;;;;5084586;28;20222;-82
2021/09/27 09:23:25;;;;;;;2.07;1.67;;;19.40;99.90;;;;;;5078905;28;20230;-83
2021/09/27 09:25:52;;;;;;;0.87;0.87;;;19.20;99.90;;;;;;5085136;28;20557;-82
2021/09/27 09:28:18;;;;;;;0.97;0.80;;;19.00;99.90;;;;;;5087927;28;20271;-82
2021/09/27 09:31:12;;;;;;;1.90;1.13;;;19.00;99.90;;;;;;5092673;28;20644;-83
2021/09/27 09:33:46;;;;;;;0.67;0.67;;;19.10;99.90;;;;;;5088729;28;20699;-82
2021/09/27 09:36:21;;;;;;;2.33;1.43;;;19.10;99.90;;;;;;5090689;28;20201;-82
2021/09/27 09:38:47;;;;;;;1.70;0.60;;;19.10;99.90;;;;;;5084305;28;20183;-82
2021/09/27 09:41:14;;;;;;;1.23;1.13;;;19.20;99.90;;;;;;5095166;28;20187;-83
2021/09/27 09:43:45;;;;;;;1.20;1.10;;;19.30;99.90;;;;;;5084814;28;20201;-82
2021/09/27 09:46:22;;;;;;;1.00;0.90;;;19.60;99.90;;;;;;5082406;28;20179;-83
2021/09/27 09:49:08;;;;;;;1.40;1.07;;;19.30;99.90;;;;;;5092966;28;20268;-82
2021/09/27 09:51:47;;;;;;;0.77;0.77;;;19.20;99.90;;;;;;5087946;28;20181;-82
2021/09/27 09:54:23;;;;;;;0.40;0.40;;;19.10;99.90;;;;;;5087388;28;20185;-82
2021/09/27 09:56:58;;;;;;;2.47;1.53;;;19.00;99.90;;;;;;5090757;28;20277;-82
2021/09/27 09:59:26;;;;;;;1.33;1.23;;;19.00;99.90;;;;;;5084345;28;20180;-82
2021/09/27 10:01:57;;;;;;;1.37;0.90;;;19.20;99.90;;;;;;5095581;28;20190;-83
2021/09/27 10:04:39;;;;;;;2.47;0.60;;;19.30;99.90;;;;;;5093038;28;20649;-82
2021/09/27 10:07:31;;;;;;;0.50;0.50;;;19.40;99.90;;;;;;5087239;28;20267;-82
2021/09/27 10:10:13;;;;;;;2.20;0.93;;;19.50;99.90;;;;;;5078094;28;20185;-82
2021/09/27 10:12:50;;;;;;;0.50;0.50;;;19.60;99.90;;;;;;5094357;28;20202;-83
2021/09/27 10:15:33;;;;;;;1.50;1.00;;;19.60;99.90;;;;;;5093954;28;20180;-83
2021/09/27 10:18:22;;;;;;;0.93;0.87;;;19.70;99.90;;;;;;5080797;28;20183;-83
2021/09/27 10:21:17;;;;;;;0.90;0.73;;;19.70;99.90;;;;;;5075964;28;20793;-82
2021/09/27 10:23:47;;;;;;;0.40;0.40;;;19.70;99.90;;;;;;5089232;28;20196;-82
2021/09/27 10:26:12;;;;;;;0.50;0.50;;;19.80;99.90;;;;;;5093056;28;20708;-82
2021/09/27 10:28:40;;;;;;;1.30;1.07;;;20.00;99.90;;;;;;5100765;28;20244;-83
2021/09/27 10:31:07;;;;;;;0.50;0.50;;;20.00;99.90;;;;;;5090435;28;20609;-82
2021/09/27 10:33:38;;;;;;;0.60;0.60;;;20.00;99.90;;;;;;5090618;28;20210;-83
2021/09/27 10:36:17;;;;;;;0.80;0.80;;;20.20;99.90;;;;;;5092976;28;20193;-82
2021/09/27 10:38:49;;;;;;;0.93;0.93;;;20.30;99.90;;;;;;5098316;28;20633;-83
2021/09/27 10:41:26;;;;;;;0.87;0.83;;;20.40;99.90;;;;;;5094856;28;20198;-83
2021/09/27 10:44:02;;;;;;;1.63;1.50;;;20.40;99.90;;;;;;5092963;28;20196;-82
2021/09/27 10:46:39;;;;;;;5.17;1.67;;;20.30;99.90;;;;;;5087419;28;20215;-82
2021/09/27 10:49:14;;;;;;;1.10;1.03;;;20.40;99.90;;;;;;5082411;28;20165;-83
2021/09/27 10:51:40;;;;;;;1.47;0.77;;;20.40;99.90;;;;;;5095637;28;20554;-83
2021/09/27 10:54:15;;;;;;;0.67;0.67;;;20.60;99.90;;;;;;5090345;28;20923;-83
2021/09/27 10:56:48;;;;;;;0.70;0.70;;;20.60;99.90;;;;;;5087844;28;20551;-83
2021/09/27 10:59:29;;;;;;;1.53;1.40;;;20.50;99.90;;;;;;5100176;28;20178;-83
2021/09/27 11:02:02;;;;;;;1.13;1.00;;;20.40;99.90;;;;;;5088720;28;20201;-82
2021/09/27 11:04:43;;;;;;;0.70;0.63;;;20.50;99.90;;;;;;5095341;28;20183;-83
2021/09/27 11:07:39;;;;;;;1.23;0.77;;;20.30;99.90;;;;;;5086817;28;20184;-83
2021/09/27 11:10:27;;;;;;;0.30;0.30;;;20.40;99.90;;;;;;5083524;28;20207;-82
2021/09/27 11:12:54;;;;;;;0.57;0.57;;;20.20;99.90;;;;;;5088917;28;20205;-83
2021/09/27 11:15:22;;;;;;;1.00;0.20;;;19.90;99.90;;;;;;5100019;28;20245;-83
2021/09/27 11:18:01;;;;;;;1.70;0.80;;;19.80;99.90;;;;;;5096043;28;20612;-82
2021/09/27 11:20:39;;;;;;;1.00;1.00;;;19.90;99.90;;;;;;5087423;28;20253;-82
2021/09/27 11:23:30;;;;;;;0.47;0.47;;;20.30;99.90;;;;;;5081870;28;20277;-82
2021/09/27 11:26:14;;;;;;;1.13;0.70;;;20.40;99.90;;;;;;5082094;28;20225;-83
2021/09/27 11:28:47;;;;;;;1.37;1.13;;;20.40;99.90;;;;;;5084088;28;20649;-82
2021/09/27 11:31:19;;;;;;;2.13;1.00;;;20.50;99.90;;;;;;5092210;28;20187;-82
2021/09/27 11:33:51;;;;;;;0.43;0.43;;;20.50;99.90;;;;;;5095356;28;20330;-82
2021/09/27 11:36:16;;;;;;;0.93;0.80;;;20.20;99.90;;;;;;5091748;28;20197;-83
2021/09/27 11:38:47;;;;;;;1.23;0.70;;;20.40;99.90;;;;;;5088094;28;20642;-82
2021/09/27 11:41:13;;;;;;;1.60;0.77;;;20.50;99.90;;;;;;5094013;28;20245;-82
2021/09/27 11:44:13;;;;;;;1.33;1.23;;;20.50;99.90;;;;;;5093421;28;20685;-82
2021/09/27 11:46:44;;;;;;;1.40;0.97;;;20.50;99.90;;;;;;5093118;28;20185;-83
2021/09/27 11:49:27;;;;;;;0.83;0.83;;;20.40;99.90;;;;;;5086490;28;20166;-83
2021/09/27 11:52:08;;;;;;;0.93;0.83;;;20.40;99.90;;;;;;5086177;28;20184;-82
2021/09/27 11:54:55;;;;;;;0.63;0.63;;;20.30;99.90;;;;;;5087806;28;20218;-82
2021/09/27 11:58:05;;;;;;;0.70;0.70;;;19.80;99.90;;;;;;5089839;28;20590;-83
2021/09/27 12:00:40;;;;;;;1.53;1.43;;;19.70;99.90;;;;;;5087459;28;20184;-82
2021/09/27 12:03:21;;;;;;;0.47;0.47;;;19.40;99.90;;;;;;5080475;28;20195;-83
2021/09/27 12:05:55;;;;;;;0.93;0.87;;;19.80;99.90;;;;;;5087971;28;20186;-83
2021/09/27 12:08:28;;;;;;;0.80;0.63;;;19.50;99.90;;;;;;5087096;28;20236;-83
2021/09/27 12:10:57;;;;;;;0.50;0.50;;;20.10;99.90;;;;;;5096078;28;20259;-83
2021/09/27 12:13:26;;;;;;;0.77;0.60;;;20.60;99.90;;;;;;5087108;28;20842;-83
2021/09/27 12:15:58;;;;;;;1.10;1.00;;;20.70;99.90;;;;;;5091436;28;20201;-83
2021/09/27 12:18:35;;;;;;;0.80;0.80;;;20.90;99.90;;;;;;5088194;28;20236;-83
2021/09/27 12:21:07;;;;;;;0.97;0.60;;;21.20;99.90;;;;;;5081677;28;20180;-83
2021/09/27 12:23:51;;;;;;;0.57;0.50;;;21.40;99.90;;;;;;5086919;28;20216;-83
2021/09/27 12:26:20;;;;;;;0.50;0.50;;;21.60;99.90;;;;;;5090301;28;20259;-82
2021/09/27 12:28:46;;;;;;;0.50;0.50;;;21.80;99.90;;;;;;5086036;28;20185;-82
2021/09/27 12:31:12;;;;;;;1.10;0.63;;;21.90;99.90;;;;;;5090328;28;20185;-82
2021/09/27 12:33:40;;;;;;;0.67;0.67;;;22.00;99.90;;;;;;5093230;28;20216;-83
2021/09/27 12:36:11;;;;;;;0.80;0.60;;;22.10;99.90;;;;;;5087538;28;20188;-83
2021/09/27 12:38:49;;;;;;;0.80;0.80;;;22.20;99.90;;;;;;5089478;28;20181;-83
2021/09/27 12:41:15;;;;;;;0.43;0.43;;;22.20;99.90;;;;;;5090226;28;20596;-83
2021/09/27 12:43:41;;;;;;;0.97;0.90;;;22.20;99.90;;;;;;5092779;28;20192;-82
2021/09/27 12:46:23;;;;;;;0.90;0.33;;;22.20;99.90;;;;;;5084266;28;20702;-83
2021/09/27 12:49:02;;;;;;;1.33;0.80;;;22.00;99.90;;;;;;5092612;28;20200;-83
2021/09/27 12:51:41;;;;;;;0.43;0.43;;;21.80;99.90;;;;;;5080973;28;20189;-81
2021/09/27 12:54:34;;;;;;;0.67;0.63;;;22.00;99.90;;;;;;5083810;28;20184;-80
2021/09/27 12:57:06;;;;;;;2.13;1.00;;;22.20;99.90;;;;;;5079810;28;20234;-81
2021/09/27 12:59:33;;;;;;;0.40;0.40;;;22.40;99.90;;;;;;5081016;28;20184;-81
2021/09/27 13:02:03;;;;;;;0.57;0.57;;;22.10;99.90;;;;;;5096879;28;20200;-80
2021/09/27 13:04:29;;;;;;;0.50;0.50;;;22.30;99.90;;;;;;5098125;28;20181;-80
2021/09/27 13:07:04;;;;;;;0.63;0.40;;;22.50;99.90;;;;;;5083354;28;20556;-80
2021/09/27 13:09:34;;;;;;;0.77;0.73;;;22.50;99.90;;;;;;5096543;28;20172;-80
2021/09/27 13:12:14;;;;;;;0.43;0.43;;;22.40;99.90;;;;;;5085914;28;20254;-80
2021/09/27 13:14:50;;;;;;;0.80;0.80;;;22.90;99.90;;;;;;5095431;28;20192;-80
2021/09/27 13:17:21;;;;;;;0.90;0.90;;;23.60;99.90;;;;;;5087050;28;20196;-81
2021/09/27 13:19:51;;;;;;;1.80;1.10;;;23.80;99.90;;;;;;5085552;28;20252;-81
2021/09/27 13:22:39;;;;;;;0.97;0.90;;;23.80;99.90;;;;;;5091238;28;20204;-81
2021/09/27 13:25:13;;;;;;;1.50;1.00;;;24.00;99.90;;;;;;5083282;28;20165;-81
2021/09/27 13:27:50;;;;;;;0.80;0.77;;;24.10;99.90;;;;;;5090636;28;20200;-80
2021/09/27 13:30:26;;;;;;;0.90;0.90;;;24.10;99.90;;;;;;5091970;28;20226;-80
2021/09/27 13:33:05;;;;;;;1.00;0.80;;;23.70;99.90;;;;;;5087285;28;20204;-81
2021/09/27 13:35:39;;;;;;;0.77;0.77;;;23.60;99.90;;;;;;5099917;28;20203;-81